sensor_id;sensor_type;location;lat;lon;timestamp;pressure;altitude;pressure_sealevel;temperature;humidity
70954;BME280;58618;47.490;8.736;2024-02-04T00:02:04;97756.81;;;2.60;100.00
70954;BME280;58618;47.490;8.736;2024-02-04T00:04:53;97776.13;;;2.89;100.00
70954;BME280;58618;47.490;8.736;2024-02-04T00:07:40;97773.16;;;2.92;100.00
70954;BME280;58618;47.490;8.736;2024-02-04T00:10:29;97765.13;;;2.88;100.00
70954;BME280;58618;47.490;8.736;2024-02-04T00:13:16;97782.38;;;2.86;100.00
70954;BME280;58618;47.490;8.736;2024-02-04T00:16:04;97797.28;;;2.89;100.00
70954;BME280;58618;47.490;8.736;2024-02-04T00:18:52;97793.41;;;3.00;100.00
70954;BME280;58618;47.490;8.736;2024-02-04T00:21:39;97791.44;;;2.95;100.00
70954;BME280;58618;47.490;8.736;2024-02-04T00:24:27;97788.66;;;2.84;100.00
70954;BME280;58618;47.490;8.736;2024-02-04T00:27:15;97794.09;;;2.74;100.00
70954;BME280;58618;47.490;8.736;2024-02-04T00:30:03;97792.31;;;2.68;100.00
70954;BME280;58618;47.490;8.736;2024-02-04T00:32:51;97791.88;;;2.58;100.00
70954;BME280;58618;47.490;8.736;2024-02-04T00:35:38;97787.53;;;2.52;100.00
70954;BME280;58618;47.490;8.736;2024-02-04T00:38:25;97789.66;;;2.42;100.00
70954;BME280;58618;47.490;8.736;2024-02-04T00:41:13;97791.97;;;2.37;100.00
70954;BME280;58618;47.490;8.736;2024-02-04T00:44:01;97788.38;;;2.25;100.00
70954;BME280;58618;47.490;8.736;2024-02-04T00:46:49;97803.66;;;2.25;100.00
70954;BME280;58618;47.490;8.736;2024-02-04T00:49:36;97807.94;;;2.24;100.00
70954;BME280;58618;47.490;8.736;2024-02-04T00:52:23;97814.28;;;2.35;100.00
70954;BME280;58618;47.490;8.736;2024-02-04T00:55:11;97811.50;;;2.30;100.00
70954;BME280;58618;47.490;8.736;2024-02-04T00:57:58;97813.91;;;2.38;100.00
70954;BME280;58618;47.490;8.736;2024-02-04T01:00:48;97833.91;;;2.41;100.00
70954;BME280;58618;47.490;8.736;2024-02-04T01:03:36;97831.31;;;2.34;100.00
70954;BME280;58618;47.490;8.736;2024-02-04T01:06:23;97823.16;;;2.18;100.00
70954;BME280;58618;47.490;8.736;2024-02-04T01:09:11;97826.72;;;2.23;100.00
70954;BME280;58618;47.490;8.736;2024-02-04T01:11:58;97825.94;;;2.23;100.00
70954;BME280;58618;47.490;8.736;2024-02-04T01:14:45;97816.19;;;2.26;100.00
70954;BME280;58618;47.490;8.736;2024-02-04T01:17:34;97807.16;;;2.24;100.00
70954;BME280;58618;47.490;8.736;2024-02-04T01:20:21;97800.63;;;2.42;100.00
70954;BME280;58618;47.490;8.736;2024-02-04T01:23:09;97794.38;;;2.51;100.00
70954;BME280;58618;47.490;8.736;2024-02-04T01:25:56;97789.91;;;2.60;100.00
70954;BME280;58618;47.490;8.736;2024-02-04T01:28:43;97781.56;;;2.73;100.00
70954;BME280;58618;47.490;8.736;2024-02-04T01:31:30;97770.97;;;2.76;100.00
70954;BME280;58618;47.490;8.736;2024-02-04T01:34:19;97783.38;;;2.85;100.00
70954;BME280;58618;47.490;8.736;2024-02-04T01:37:07;97781.78;;;2.84;100.00
70954;BME280;58618;47.490;8.736;2024-02-04T01:39:54;97770.66;;;2.98;100.00
70954;BME280;58618;47.490;8.736;2024-02-04T01:42:41;97759.69;;;3.05;100.00
70954;BME280;58618;47.490;8.736;2024-02-04T01:45:29;97764.38;;;3.08;100.00
70954;BME280;58618;47.490;8.736;2024-02-04T01:48:16;97761.28;;;3.19;100.00
70954;BME280;58618;47.490;8.736;2024-02-04T01:51:05;97752.44;;;3.15;100.00
70954;BME280;58618;47.490;8.736;2024-02-04T01:53:53;97741.28;;;3.16;100.00
70954;BME280;58618;47.490;8.736;2024-02-04T01:56:40;97746.38;;;3.16;100.00
70954;BME280;58618;47.490;8.736;2024-02-04T01:59:29;97747.34;;;3.15;100.00
70954;BME280;58618;47.490;8.736;2024-02-04T02:02:17;97768.34;;;3.17;100.00
70954;BME280;58618;47.490;8.736;2024-02-04T02:05:05;97779.31;;;3.24;100.00
70954;BME280;58618;47.490;8.736;2024-02-04T02:07:54;97764.78;;;3.18;100.00
70954;BME280;58618;47.490;8.736;2024-02-04T02:10:42;97772.63;;;3.23;100.00
70954;BME280;58618;47.490;8.736;2024-02-04T02:13:34;97760.09;;;3.28;100.00
70954;BME280;58618;47.490;8.736;2024-02-04T02:16:23;97752.06;;;3.31;100.00
70954;BME280;58618;47.490;8.736;2024-02-04T02:19:34;97758.56;;;3.27;100.00
70954;BME280;58618;47.490;8.736;2024-02-04T02:22:27;97758.75;;;3.32;100.00
70954;BME280;58618;47.490;8.736;2024-02-04T02:25:16;97766.41;;;3.32;100.00
70954;BME280;58618;47.490;8.736;2024-02-04T02:28:04;97778.16;;;3.39;100.00
70954;BME280;58618;47.490;8.736;2024-02-04T02:30:52;97777.00;;;3.42;100.00
70954;BME280;58618;47.490;8.736;2024-02-04T02:33:39;97780.91;;;3.51;100.00
70954;BME280;58618;47.490;8.736;2024-02-04T02:36:28;97789.53;;;3.50;100.00
70954;BME280;58618;47.490;8.736;2024-02-04T02:39:23;97777.41;;;3.59;100.00
70954;BME280;58618;47.490;8.736;2024-02-04T02:42:13;97758.53;;;3.66;100.00
70954;BME280;58618;47.490;8.736;2024-02-04T02:45:03;97749.13;;;3.73;100.00
70954;BME280;58618;47.490;8.736;2024-02-04T02:47:51;97744.81;;;3.67;100.00
70954;BME280;58618;47.490;8.736;2024-02-04T02:50:39;97749.91;;;3.67;100.00
70954;BME280;58618;47.490;8.736;2024-02-04T02:53:26;97743.84;;;3.68;100.00
70954;BME280;58618;47.490;8.736;2024-02-04T02:56:14;97740.88;;;3.65;100.00
70954;BME280;58618;47.490;8.736;2024-02-04T02:59:02;97739.72;;;3.54;100.00
70954;BME280;58618;47.490;8.736;2024-02-04T03:01:50;97752.09;;;3.57;100.00
70954;BME280;58618;47.490;8.736;2024-02-04T03:04:38;97746.38;;;3.55;100.00
70954;BME280;58618;47.490;8.736;2024-02-04T03:07:25;97736.00;;;3.63;100.00
70954;BME280;58618;47.490;8.736;2024-02-04T03:10:12;97736.56;;;3.72;100.00
70954;BME280;58618;47.490;8.736;2024-02-04T03:13:00;97739.31;;;3.77;100.00
70954;BME280;58618;47.490;8.736;2024-02-04T03:15:49;97749.69;;;3.82;100.00
70954;BME280;58618;47.490;8.736;2024-02-04T03:18:38;97759.72;;;3.83;100.00
70954;BME280;58618;47.490;8.736;2024-02-04T03:21:25;97770.53;;;3.86;100.00
70954;BME280;58618;47.490;8.736;2024-02-04T03:24:13;97777.38;;;3.85;100.00
70954;BME280;58618;47.490;8.736;2024-02-04T03:27:00;97775.22;;;3.89;100.00
70954;BME280;58618;47.490;8.736;2024-02-04T03:29:47;97775.81;;;3.91;100.00
70954;BME280;58618;47.490;8.736;2024-02-04T03:32:36;97756.94;;;3.92;100.00
70954;BME280;58618;47.490;8.736;2024-02-04T03:35:23;97752.84;;;3.91;100.00
70954;BME280;58618;47.490;8.736;2024-02-04T03:38:11;97750.25;;;4.04;100.00
70954;BME280;58618;47.490;8.736;2024-02-04T03:40:58;97754.56;;;4.10;100.00
70954;BME280;58618;47.490;8.736;2024-02-04T03:43:45;97762.81;;;4.12;100.00
70954;BME280;58618;47.490;8.736;2024-02-04T03:46:33;97770.25;;;4.20;100.00
70954;BME280;58618;47.490;8.736;2024-02-04T03:49:21;97766.72;;;4.08;100.00
70954;BME280;58618;47.490;8.736;2024-02-04T03:52:09;97776.16;;;4.07;100.00
70954;BME280;58618;47.490;8.736;2024-02-04T03:54:56;97782.06;;;4.08;100.00
70954;BME280;58618;47.490;8.736;2024-02-04T03:57:45;97786.78;;;4.11;100.00
70954;BME280;58618;47.490;8.736;2024-02-04T04:00:33;97791.09;;;4.17;100.00
70954;BME280;58618;47.490;8.736;2024-02-04T04:03:20;97809.13;;;4.29;100.00
70954;BME280;58618;47.490;8.736;2024-02-04T04:06:09;97810.28;;;4.39;100.00
70954;BME280;58618;47.490;8.736;2024-02-04T04:08:56;97809.09;;;4.42;100.00
70954;BME280;58618;47.490;8.736;2024-02-04T04:11:45;97804.00;;;4.35;100.00
70954;BME280;58618;47.490;8.736;2024-02-04T04:14:32;97803.19;;;4.41;100.00
70954;BME280;58618;47.490;8.736;2024-02-04T04:17:19;97808.91;;;4.43;100.00
70954;BME280;58618;47.490;8.736;2024-02-04T04:20:07;97802.03;;;4.37;100.00
70954;BME280;58618;47.490;8.736;2024-02-04T04:22:56;97814.81;;;4.37;100.00
70954;BME280;58618;47.490;8.736;2024-02-04T04:25:43;97809.09;;;4.35;100.00
70954;BME280;58618;47.490;8.736;2024-02-04T04:28:31;97805.19;;;4.33;100.00
70954;BME280;58618;47.490;8.736;2024-02-04T04:31:18;97821.50;;;4.32;100.00
70954;BME280;58618;47.490;8.736;2024-02-04T04:34:05;97813.22;;;4.43;100.00
70954;BME280;58618;47.490;8.736;2024-02-04T04:36:53;97810.66;;;4.49;100.00
70954;BME280;58618;47.490;8.736;2024-02-04T04:39:41;97813.59;;;4.46;100.00
70954;BME280;58618;47.490;8.736;2024-02-04T04:42:29;97809.28;;;4.40;100.00
70954;BME280;58618;47.490;8.736;2024-02-04T04:45:17;97808.72;;;4.38;100.00
70954;BME280;58618;47.490;8.736;2024-02-04T04:48:05;97808.91;;;4.43;100.00
70954;BME280;58618;47.490;8.736;2024-02-04T04:50:53;97805.56;;;4.43;100.00
70954;BME280;58618;47.490;8.736;2024-02-04T04:53:41;97787.88;;;4.41;100.00
70954;BME280;58618;47.490;8.736;2024-02-04T04:56:29;97797.28;;;4.47;100.00
70954;BME280;58618;47.490;8.736;2024-02-04T04:59:16;97801.59;;;4.53;100.00
70954;BME280;58618;47.490;8.736;2024-02-04T05:02:04;97799.63;;;4.55;100.00
70954;BME280;58618;47.490;8.736;2024-02-04T05:04:51;97799.66;;;4.42;100.00
70954;BME280;58618;47.490;8.736;2024-02-04T05:07:39;97801.63;;;4.40;100.00
70954;BME280;58618;47.490;8.736;2024-02-04T05:10:27;97802.00;;;4.50;100.00
70954;BME280;58618;47.490;8.736;2024-02-04T05:13:15;97800.44;;;4.49;100.00
70954;BME280;58618;47.490;8.736;2024-02-04T05:16:03;97805.56;;;4.36;100.00
70954;BME280;58618;47.490;8.736;2024-02-04T05:18:51;97811.84;;;4.40;100.00
70954;BME280;58618;47.490;8.736;2024-02-04T05:21:38;97796.94;;;4.31;100.00
70954;BME280;58618;47.490;8.736;2024-02-04T05:24:26;97804.00;;;4.29;100.00
70954;BME280;58618;47.490;8.736;2024-02-04T05:27:13;97792.81;;;4.23;100.00
70954;BME280;58618;47.490;8.736;2024-02-04T05:30:03;97790.69;;;4.20;100.00
70954;BME280;58618;47.490;8.736;2024-02-04T05:32:51;97791.84;;;4.24;100.00
70954;BME280;58618;47.490;8.736;2024-02-04T05:35:38;97788.31;;;4.25;100.00
70954;BME280;58618;47.490;8.736;2024-02-04T05:38:28;97787.94;;;4.28;100.00
70954;BME280;58618;47.490;8.736;2024-02-04T05:41:16;97789.09;;;4.25;100.00
70954;BME280;58618;47.490;8.736;2024-02-04T05:44:03;97793.41;;;4.38;100.00
70954;BME280;58618;47.490;8.736;2024-02-04T05:46:52;97792.63;;;4.31;100.00
70954;BME280;58618;47.490;8.736;2024-02-04T05:49:40;97792.22;;;4.34;100.00
70954;BME280;58618;47.490;8.736;2024-02-04T05:52:27;97794.94;;;4.39;100.00
70954;BME280;58618;47.490;8.736;2024-02-04T05:55:14;97789.03;;;4.45;100.00
70954;BME280;58618;47.490;8.736;2024-02-04T05:58:02;97787.88;;;4.35;100.00
70954;BME280;58618;47.490;8.736;2024-02-04T06:00:49;97793.97;;;4.40;100.00
70954;BME280;58618;47.490;8.736;2024-02-04T06:03:38;97796.16;;;4.30;100.00
70954;BME280;58618;47.490;8.736;2024-02-04T06:06:26;97799.69;;;4.29;100.00
70954;BME280;58618;47.490;8.736;2024-02-04T06:09:14;97814.63;;;4.25;100.00
70954;BME280;58618;47.490;8.736;2024-02-04T06:12:01;97821.31;;;4.33;100.00
70954;BME280;58618;47.490;8.736;2024-02-04T06:14:52;97823.69;;;4.28;100.00
70954;BME280;58618;47.490;8.736;2024-02-04T06:17:39;97839.00;;;4.21;100.00
70954;BME280;58618;47.490;8.736;2024-02-04T06:20:28;97827.63;;;4.11;100.00
70954;BME280;58618;47.490;8.736;2024-02-04T06:23:18;97836.22;;;4.23;100.00
70954;BME280;58618;47.490;8.736;2024-02-04T06:26:09;97844.50;;;4.25;100.00
70954;BME280;58618;47.490;8.736;2024-02-04T06:28:57;97834.69;;;4.22;100.00
70954;BME280;58618;47.490;8.736;2024-02-04T06:31:48;97817.38;;;4.24;100.00
70954;BME280;58618;47.490;8.736;2024-02-04T06:34:36;97824.44;;;4.29;100.00
70954;BME280;58618;47.490;8.736;2024-02-04T06:37:26;97836.63;;;4.33;100.00
70954;BME280;58618;47.490;8.736;2024-02-04T06:40:17;97826.00;;;4.30;100.00
70954;BME280;58618;47.490;8.736;2024-02-04T06:43:05;97825.44;;;4.08;100.00
70954;BME280;58618;47.490;8.736;2024-02-04T06:45:52;97817.41;;;3.98;100.00
70954;BME280;58618;47.490;8.736;2024-02-04T06:48:40;97827.03;;;4.09;100.00
70954;BME280;58618;47.490;8.736;2024-02-04T06:51:27;97826.03;;;3.97;100.00
70954;BME280;58618;47.490;8.736;2024-02-04T06:54:16;97814.84;;;3.98;100.00
70954;BME280;58618;47.490;8.736;2024-02-04T06:57:03;97810.56;;;3.85;100.00
70954;BME280;58618;47.490;8.736;2024-02-04T06:59:50;97815.06;;;3.76;100.00
70954;BME280;58618;47.490;8.736;2024-02-04T07:02:38;97780.94;;;3.58;100.00
70954;BME280;58618;47.490;8.736;2024-02-04T07:05:25;97806.03;;;3.67;100.00
70954;BME280;58618;47.490;8.736;2024-02-04T07:08:12;97811.53;;;3.77;100.00
70954;BME280;58618;47.490;8.736;2024-02-04T07:11:01;97814.28;;;3.69;100.00
70954;BME280;58618;47.490;8.736;2024-02-04T07:13:49;97817.81;;;3.62;100.00
70954;BME280;58618;47.490;8.736;2024-02-04T07:16:37;97812.72;;;3.68;100.00
70954;BME280;58618;47.490;8.736;2024-02-04T07:19:24;97810.53;;;3.65;100.00
70954;BME280;58618;47.490;8.736;2024-02-04T07:22:12;97825.28;;;3.63;100.00
70954;BME280;58618;47.490;8.736;2024-02-04T07:24:59;97812.69;;;3.55;100.00
70954;BME280;58618;47.490;8.736;2024-02-04T07:27:48;97832.34;;;3.61;100.00
70954;BME280;58618;47.490;8.736;2024-02-04T07:30:35;97834.31;;;3.72;100.00
70954;BME280;58618;47.490;8.736;2024-02-04T07:33:23;97852.56;;;3.82;100.00
70954;BME280;58618;47.490;8.736;2024-02-04T07:36:10;97851.38;;;3.92;100.00
70954;BME280;58618;47.490;8.736;2024-02-04T07:38:58;97852.75;;;3.88;100.00
70954;BME280;58618;47.490;8.736;2024-02-04T07:41:45;97848.44;;;3.95;100.00
70954;BME280;58618;47.490;8.736;2024-02-04T07:44:34;97841.38;;;4.03;100.00
70954;BME280;58618;47.490;8.736;2024-02-04T07:47:21;97823.09;;;4.13;100.00
70954;BME280;58618;47.490;8.736;2024-02-04T07:50:08;97820.91;;;4.23;100.00
70954;BME280;58618;47.490;8.736;2024-02-04T07:52:56;97831.28;;;4.48;100.00
70954;BME280;58618;47.490;8.736;2024-02-04T07:55:43;97826.75;;;4.56;100.00
70954;BME280;58618;47.490;8.736;2024-02-04T07:58:31;97825.31;;;4.67;100.00
70954;BME280;58618;47.490;8.736;2024-02-04T08:01:19;97816.25;;;4.78;100.00
70954;BME280;58618;47.490;8.736;2024-02-04T08:04:07;97826.34;;;4.59;100.00
70954;BME280;58618;47.490;8.736;2024-02-04T08:06:56;97830.25;;;4.68;100.00
70954;BME280;58618;47.490;8.736;2024-02-04T08:09:44;97836.50;;;4.73;100.00
70954;BME280;58618;47.490;8.736;2024-02-04T08:12:32;97849.50;;;4.71;100.00
70954;BME280;58618;47.490;8.736;2024-02-04T08:15:20;97847.72;;;4.72;100.00
70954;BME280;58618;47.490;8.736;2024-02-04T08:18:08;97823.53;;;4.81;100.00
70954;BME280;58618;47.490;8.736;2024-02-04T08:20:56;97829.63;;;4.80;100.00
70954;BME280;58618;47.490;8.736;2024-02-04T08:23:44;97833.34;;;4.84;100.00
70954;BME280;58618;47.490;8.736;2024-02-04T08:26:32;97829.72;;;4.98;100.00
70954;BME280;58618;47.490;8.736;2024-02-04T08:29:19;97828.56;;;4.94;100.00
70954;BME280;58618;47.490;8.736;2024-02-04T08:32:07;97829.34;;;5.01;100.00
70954;BME280;58618;47.490;8.736;2024-02-04T08:34:55;97815.63;;;5.27;100.00
70954;BME280;58618;47.490;8.736;2024-02-04T08:37:43;97806.00;;;5.22;100.00
70954;BME280;58618;47.490;8.736;2024-02-04T08:40:30;97802.03;;;5.33;100.00
70954;BME280;58618;47.490;8.736;2024-02-04T08:43:17;97804.78;;;5.31;100.00
70954;BME280;58618;47.490;8.736;2024-02-04T08:46:05;97798.91;;;5.24;100.00
70954;BME280;58618;47.490;8.736;2024-02-04T08:48:52;97805.69;;;5.12;100.00
70954;BME280;58618;47.490;8.736;2024-02-04T08:51:41;97802.53;;;5.41;100.00
70954;BME280;58618;47.490;8.736;2024-02-04T08:54:29;97806.50;;;5.37;100.00
70954;BME280;58618;47.490;8.736;2024-02-04T08:57:16;97817.13;;;5.34;100.00
70954;BME280;58618;47.490;8.736;2024-02-04T09:00:04;97812.66;;;5.30;100.00
70954;BME280;58618;47.490;8.736;2024-02-04T09:02:54;97812.88;;;5.28;100.00
70954;BME280;58618;47.490;8.736;2024-02-04T09:05:41;97818.97;;;5.59;100.00
70954;BME280;58618;47.490;8.736;2024-02-04T09:08:30;97824.63;;;5.61;100.00
70954;BME280;58618;47.490;8.736;2024-02-04T09:11:18;97811.16;;;5.72;100.00
70954;BME280;58618;47.490;8.736;2024-02-04T09:14:06;97805.50;;;5.94;100.00
70954;BME280;58618;47.490;8.736;2024-02-04T09:16:54;97797.50;;;6.09;100.00
70954;BME280;58618;47.490;8.736;2024-02-04T09:19:41;97802.25;;;6.06;100.00
70954;BME280;58618;47.490;8.736;2024-02-04T09:22:29;97807.03;;;6.02;100.00
70954;BME280;58618;47.490;8.736;2024-02-04T09:25:17;97813.31;;;6.24;100.00
70954;BME280;58618;47.490;8.736;2024-02-04T09:28:05;97811.81;;;6.35;100.00
70954;BME280;58618;47.490;8.736;2024-02-04T09:30:52;97808.03;;;6.19;100.00
70954;BME280;58618;47.490;8.736;2024-02-04T09:33:40;97799.91;;;6.04;100.00
70954;BME280;58618;47.490;8.736;2024-02-04T09:36:27;97818.56;;;6.29;100.00
70954;BME280;58618;47.490;8.736;2024-02-04T09:39:15;97807.06;;;6.75;100.00
70954;BME280;58618;47.490;8.736;2024-02-04T09:42:04;97798.81;;;6.55;100.00
70954;BME280;58618;47.490;8.736;2024-02-04T09:44:52;97808.91;;;6.31;100.00
70954;BME280;58618;47.490;8.736;2024-02-04T09:47:40;97797.25;;;6.17;100.00
70954;BME280;58618;47.490;8.736;2024-02-04T09:50:29;97798.47;;;6.33;100.00
70954;BME280;58618;47.490;8.736;2024-02-04T09:53:20;97806.06;;;6.21;100.00
70954;BME280;58618;47.490;8.736;2024-02-04T09:56:08;97799.47;;;6.50;100.00
70954;BME280;58618;47.490;8.736;2024-02-04T09:58:58;97808.78;;;6.63;100.00
70954;BME280;58618;47.490;8.736;2024-02-04T10:01:46;97803.94;;;6.55;100.00
70954;BME280;58618;47.490;8.736;2024-02-04T10:04:34;97808.53;;;6.83;100.00
70954;BME280;58618;47.490;8.736;2024-02-04T10:07:21;97808.03;;;6.92;100.00
70954;BME280;58618;47.490;8.736;2024-02-04T10:10:10;97797.66;;;6.87;100.00
70954;BME280;58618;47.490;8.736;2024-02-04T10:12:58;97792.56;;;7.29;100.00
70954;BME280;58618;47.490;8.736;2024-02-04T10:15:48;97792.44;;;7.35;100.00
70954;BME280;58618;47.490;8.736;2024-02-04T10:18:35;97786.03;;;7.14;100.00
70954;BME280;58618;47.490;8.736;2024-02-04T10:21:24;97779.59;;;7.24;100.00
70954;BME280;58618;47.490;8.736;2024-02-04T10:24:11;97778.91;;;7.16;100.00
70954;BME280;58618;47.490;8.736;2024-02-04T10:26:59;97789.88;;;7.24;100.00
70954;BME280;58618;47.490;8.736;2024-02-04T10:29:46;97777.47;;;7.20;100.00
70954;BME280;58618;47.490;8.736;2024-02-04T10:32:36;97776.22;;;7.11;100.00
70954;BME280;58618;47.490;8.736;2024-02-04T10:35:23;97776.66;;;7.50;100.00
70954;BME280;58618;47.490;8.736;2024-02-04T10:38:11;97770.69;;;7.38;100.00
70954;BME280;58618;47.490;8.736;2024-02-04T10:41:00;97772.81;;;7.29;100.00
70954;BME280;58618;47.490;8.736;2024-02-04T10:43:48;97775.38;;;7.41;100.00
70954;BME280;58618;47.490;8.736;2024-02-04T10:46:36;97776.53;;;7.45;100.00
70954;BME280;58618;47.490;8.736;2024-02-04T10:49:27;97775.50;;;7.46;100.00
70954;BME280;58618;47.490;8.736;2024-02-04T10:52:16;97772.28;;;7.39;100.00
70954;BME280;58618;47.490;8.736;2024-02-04T10:55:07;97772.50;;;7.49;100.00
70954;BME280;58618;47.490;8.736;2024-02-04T10:57:55;97762.66;;;7.46;100.00
70954;BME280;58618;47.490;8.736;2024-02-04T11:00:43;97760.91;;;7.58;100.00
70954;BME280;58618;47.490;8.736;2024-02-04T11:03:31;97768.06;;;7.56;100.00
70954;BME280;58618;47.490;8.736;2024-02-04T11:06:21;97758.47;;;7.63;100.00
70954;BME280;58618;47.490;8.736;2024-02-04T11:09:09;97752.44;;;7.69;100.00
70954;BME280;58618;47.490;8.736;2024-02-04T11:11:58;97749.78;;;7.87;100.00
70954;BME280;58618;47.490;8.736;2024-02-04T11:14:51;97738.16;;;7.96;100.00
70954;BME280;58618;47.490;8.736;2024-02-04T11:17:57;97740.03;;;7.89;100.00
70954;BME280;58618;47.490;8.736;2024-02-04T11:21:07;97722.94;;;8.06;100.00
70954;BME280;58618;47.490;8.736;2024-02-04T11:24:09;97722.34;;;8.16;100.00
70954;BME280;58618;47.490;8.736;2024-02-04T11:27:02;97717.44;;;8.38;100.00
70954;BME280;58618;47.490;8.736;2024-02-04T11:29:50;97710.91;;;8.47;100.00
70954;BME280;58618;47.490;8.736;2024-02-04T11:32:39;97704.94;;;8.58;100.00
70954;BME280;58618;47.490;8.736;2024-02-04T11:35:27;97679.53;;;8.45;100.00
70954;BME280;58618;47.490;8.736;2024-02-04T11:38:17;97692.00;;;8.53;100.00
70954;BME280;58618;47.490;8.736;2024-02-04T11:41:06;97698.56;;;8.61;100.00
70954;BME280;58618;47.490;8.736;2024-02-04T11:43:55;97693.75;;;8.64;100.00
70954;BME280;58618;47.490;8.736;2024-02-04T11:46:46;97707.16;;;8.66;100.00
70954;BME280;58618;47.490;8.736;2024-02-04T11:49:33;97700.47;;;8.65;100.00
70954;BME280;58618;47.490;8.736;2024-02-04T11:52:20;97687.69;;;8.70;100.00
70954;BME280;58618;47.490;8.736;2024-02-04T11:55:13;97689.38;;;8.65;100.00
70954;BME280;58618;47.490;8.736;2024-02-04T11:58:04;97701.09;;;8.72;100.00
70954;BME280;58618;47.490;8.736;2024-02-04T12:00:52;97706.44;;;8.82;100.00
70954;BME280;58618;47.490;8.736;2024-02-04T12:03:43;97713.81;;;8.79;100.00
70954;BME280;58618;47.490;8.736;2024-02-04T12:06:31;97697.31;;;8.63;100.00
70954;BME280;58618;47.490;8.736;2024-02-04T12:09:19;97693.09;;;8.85;100.00
70954;BME280;58618;47.490;8.736;2024-02-04T12:12:08;97699.56;;;9.05;100.00
70954;BME280;58618;47.490;8.736;2024-02-04T12:14:57;97689.00;;;9.18;100.00
70954;BME280;58618;47.490;8.736;2024-02-04T12:17:46;97687.50;;;9.22;100.00
70954;BME280;58618;47.490;8.736;2024-02-04T12:20:34;97686.81;;;9.43;100.00
70954;BME280;58618;47.490;8.736;2024-02-04T12:23:22;97676.19;;;9.56;100.00
70954;BME280;58618;47.490;8.736;2024-02-04T12:26:09;97677.47;;;9.75;100.00
70954;BME280;58618;47.490;8.736;2024-02-04T12:28:58;97673.94;;;9.82;100.00
70954;BME280;58618;47.490;8.736;2024-02-04T12:31:46;97667.34;;;9.91;100.00
70954;BME280;58618;47.490;8.736;2024-02-04T12:34:34;97658.94;;;9.79;100.00
70954;BME280;58618;47.490;8.736;2024-02-04T12:37:23;97621.28;;;9.72;100.00
70954;BME280;58618;47.490;8.736;2024-02-04T12:40:20;97644.94;;;9.69;100.00
70954;BME280;58618;47.490;8.736;2024-02-04T12:43:11;97651.16;;;9.73;100.00
70954;BME280;58618;47.490;8.736;2024-02-04T12:45:59;97642.28;;;9.64;100.00
70954;BME280;58618;47.490;8.736;2024-02-04T12:48:51;97647.59;;;9.58;100.00
70954;BME280;58618;47.490;8.736;2024-02-04T12:51:40;97660.91;;;9.33;100.00
70954;BME280;58618;47.490;8.736;2024-02-04T12:54:27;97654.81;;;9.39;100.00
70954;BME280;58618;47.490;8.736;2024-02-04T12:57:21;97638.53;;;9.33;100.00
70954;BME280;58618;47.490;8.736;2024-02-04T13:00:10;97649.97;;;9.43;100.00
70954;BME280;58618;47.490;8.736;2024-02-04T13:02:58;97653.47;;;9.37;100.00
70954;BME280;58618;47.490;8.736;2024-02-04T13:05:47;97648.25;;;9.31;100.00
70954;BME280;58618;47.490;8.736;2024-02-04T13:08:34;97626.88;;;9.31;100.00
70954;BME280;58618;47.490;8.736;2024-02-04T13:11:22;97637.94;;;9.48;100.00
70954;BME280;58618;47.490;8.736;2024-02-04T13:14:09;97633.00;;;9.63;100.00
70954;BME280;58618;47.490;8.736;2024-02-04T13:16:57;97629.59;;;9.80;100.00
70954;BME280;58618;47.490;8.736;2024-02-04T13:19:44;97624.44;;;9.80;100.00
70954;BME280;58618;47.490;8.736;2024-02-04T13:22:33;97607.41;;;9.79;100.00
70954;BME280;58618;47.490;8.736;2024-02-04T13:25:20;97613.41;;;10.06;100.00
70954;BME280;58618;47.490;8.736;2024-02-04T13:28:08;97607.13;;;9.97;100.00
70954;BME280;58618;47.490;8.736;2024-02-04T13:30:56;97610.56;;;10.24;100.00
70954;BME280;58618;47.490;8.736;2024-02-04T13:33:43;97617.69;;;10.17;100.00
70954;BME280;58618;47.490;8.736;2024-02-04T13:36:30;97600.09;;;10.14;100.00
70954;BME280;58618;47.490;8.736;2024-02-04T13:39:20;97605.16;;;10.04;100.00
70954;BME280;58618;47.490;8.736;2024-02-04T13:42:07;97598.72;;;10.06;100.00
70954;BME280;58618;47.490;8.736;2024-02-04T13:44:54;97601.25;;;10.01;100.00
70954;BME280;58618;47.490;8.736;2024-02-04T13:47:42;97593.59;;;9.85;100.00
70954;BME280;58618;47.490;8.736;2024-02-04T13:50:29;97600.34;;;9.91;100.00
70954;BME280;58618;47.490;8.736;2024-02-04T13:53:17;97595.38;;;9.84;100.00
70954;BME280;58618;47.490;8.736;2024-02-04T13:56:06;97596.38;;;10.05;100.00
70954;BME280;58618;47.490;8.736;2024-02-04T13:58:53;97596.50;;;10.15;100.00
70954;BME280;58618;47.490;8.736;2024-02-04T14:01:40;97600.53;;;10.06;100.00
70954;BME280;58618;47.490;8.736;2024-02-04T14:04:29;97586.94;;;10.15;100.00
70954;BME280;58618;47.490;8.736;2024-02-04T14:07:17;97584.28;;;9.84;100.00
70954;BME280;58618;47.490;8.736;2024-02-04T14:10:05;97582.38;;;9.96;100.00
70954;BME280;58618;47.490;8.736;2024-02-04T14:12:54;97585.00;;;10.01;100.00
70954;BME280;58618;47.490;8.736;2024-02-04T14:15:41;97580.91;;;10.05;100.00
70954;BME280;58618;47.490;8.736;2024-02-04T14:18:28;97585.66;;;10.13;100.00
70954;BME280;58618;47.490;8.736;2024-02-04T14:21:15;97579.38;;;10.04;100.00
70954;BME280;58618;47.490;8.736;2024-02-04T14:24:03;97575.13;;;9.93;100.00
70954;BME280;58618;47.490;8.736;2024-02-04T14:26:56;97563.50;;;9.90;100.00
70954;BME280;58618;47.490;8.736;2024-02-04T14:29:44;97571.41;;;9.84;100.00
70954;BME280;58618;47.490;8.736;2024-02-04T14:32:32;97573.81;;;9.90;100.00
70954;BME280;58618;47.490;8.736;2024-02-04T14:35:19;97575.97;;;9.77;100.00
70954;BME280;58618;47.490;8.736;2024-02-04T14:38:06;97583.81;;;9.87;100.00
70954;BME280;58618;47.490;8.736;2024-02-04T14:40:54;97576.63;;;9.89;100.00
70954;BME280;58618;47.490;8.736;2024-02-04T14:43:41;97580.69;;;9.85;100.00
70954;BME280;58618;47.490;8.736;2024-02-04T14:46:30;97567.69;;;9.74;100.00
70954;BME280;58618;47.490;8.736;2024-02-04T14:49:17;97581.06;;;9.71;100.00
70954;BME280;58618;47.490;8.736;2024-02-04T14:52:05;97580.28;;;9.71;100.00